Time;durP1;ratioP1;P1;durP2;ratioP2;P2;SDS_P1;SDS_P2;PMS_P1;PMS_P2;Temp;Humidity;BMP_temperature;BMP_pressure;BME280_temperature;BME280_humidity;BME280_pressure;Samples;Min_cycle;Max_cycle;Signal;HPM_P1;HPM_P2
2021/04/18 00:02:09;;;;;;;11.83;8.67;;;;;;;6.78;100.00;94535.91;5053725;28;20813;-76
2021/04/18 00:04:35;;;;;;;12.70;10.10;;;;;;;6.86;100.00;94546.59;5053889;28;20452;-76
2021/04/18 00:07:02;;;;;;;13.90;9.70;;;;;;;6.98;100.00;94544.84;5053763;28;20450;-76
2021/04/18 00:09:28;;;;;;;13.33;10.67;;;;;;;6.87;100.00;94527.38;5054034;28;20453;-76
2021/04/18 00:11:55;;;;;;;16.37;10.87;;;;;;;7.04;100.00;94528.72;5053724;28;20445;-76
2021/04/18 00:14:24;;;;;;;17.40;12.13;;;;;;;6.73;100.00;94528.44;5053471;28;20445;-76
2021/04/18 00:16:51;;;;;;;18.07;13.23;;;;;;;6.90;100.00;94534.16;5035377;28;20449;-76
2021/04/18 00:19:17;;;;;;;19.00;13.83;;;;;;;6.74;100.00;94526.66;5053522;28;20437;-76
2021/04/18 00:21:43;;;;;;;21.20;15.20;;;;;;;6.62;100.00;94538.00;5053376;28;20937;-76
2021/04/18 00:24:10;;;;;;;22.97;15.53;;;;;;;6.60;100.00;94525.09;5053263;28;20580;-76
2021/04/18 00:26:36;;;;;;;29.93;17.50;;;;;;;6.51;100.00;94523.19;5034961;28;20491;-76
2021/04/18 00:29:02;;;;;;;26.07;15.63;;;;;;;6.44;100.00;94511.56;5053212;28;20509;-76
2021/04/18 00:31:30;;;;;;;24.27;17.30;;;;;;;6.39;100.00;94508.47;5053449;28;20526;-76
2021/04/18 00:33:56;;;;;;;27.30;20.43;;;;;;;6.47;100.00;94513.94;5053346;28;20499;-76
2021/04/18 00:36:22;;;;;;;31.30;18.47;;;;;;;6.62;100.00;94512.75;5053194;28;20445;-76
2021/04/18 00:38:49;;;;;;;27.03;19.23;;;;;;;6.69;100.00;94513.16;5053499;28;20449;-76
2021/04/18 00:41:15;;;;;;;30.43;19.60;;;;;;;6.82;100.00;94524.31;5053228;28;20445;-76
2021/04/18 00:43:42;;;;;;;26.93;19.20;;;;;;;6.82;100.00;94516.47;5053040;28;20480;-76
2021/04/18 00:46:09;;;;;;;27.80;19.13;;;;;;;6.97;100.00;94524.94;5052917;28;20481;-76
2021/04/18 00:48:40;;;;;;;31.97;22.40;;;;;;;7.10;100.00;94523.03;5034339;28;20446;-76
2021/04/18 00:51:07;;;;;;;29.43;18.00;;;;;;;6.99;100.00;94518.66;5053415;28;20447;-76
2021/04/18 00:53:33;;;;;;;27.03;19.50;;;;;;;7.15;100.00;94515.66;5053320;28;20449;-76
2021/04/18 00:56:00;;;;;;;24.30;18.30;;;;;;;6.93;100.00;94515.66;5053299;28;20445;-77
2021/04/18 00:58:26;;;;;;;25.73;17.63;;;;;;;7.01;100.00;94510.69;5052305;28;20479;-76
2021/04/18 01:00:53;;;;;;;18.27;13.70;;;;;;;7.11;100.00;94511.63;5052706;28;20925;-76
2021/04/18 01:03:19;;;;;;;25.77;16.60;;;;;;;7.15;100.00;94515.66;5052986;28;20488;-76
2021/04/18 01:05:46;;;;;;;31.67;20.10;;;;;;;7.25;100.00;94505.38;5053065;28;20930;-76
2021/04/18 01:08:13;;;;;;;19.80;13.37;;;;;;;6.80;100.00;94505.34;5053551;28;20452;-76
2021/04/18 01:10:40;;;;;;;22.50;16.13;;;;;;;6.77;100.00;94506.41;5053242;28;20495;-76
2021/04/18 01:13:06;;;;;;;23.63;16.07;;;;;;;6.67;100.00;94515.88;5034504;28;20437;-75
2021/04/18 01:15:33;;;;;;;19.60;14.90;;;;;;;6.88;100.00;94515.19;5052542;28;20441;-76
2021/04/18 01:17:59;;;;;;;20.57;15.23;;;;;;;6.58;100.00;94516.56;5052910;28;20481;-76
2021/04/18 01:20:26;;;;;;;20.67;12.00;;;;;;;6.50;100.00;94501.50;5067360;28;20924;-76
2021/04/18 01:22:53;;;;;;;24.03;15.30;;;;;;;6.33;100.00;94511.50;5052962;28;20481;-76
2021/04/18 01:25:21;;;;;;;23.30;17.33;;;;;;;6.33;100.00;94507.13;5052569;28;20921;-76
2021/04/18 01:27:48;;;;;;;21.57;15.77;;;;;;;6.25;100.00;94504.28;5052839;28;20445;-76
2021/04/18 01:30:17;;;;;;;21.90;15.50;;;;;;;6.26;100.00;94505.09;5053011;28;20441;-75
2021/04/18 01:32:47;;;;;;;22.07;16.13;;;;;;;6.15;100.00;94511.94;5052584;28;20925;-76
2021/04/18 01:35:14;;;;;;;21.83;15.93;;;;;;;6.21;100.00;94513.25;5052814;28;20441;-76
2021/04/18 01:37:41;;;;;;;22.30;17.97;;;;;;;6.33;100.00;94511.50;5052868;28;20813;-76
2021/04/18 01:40:11;;;;;;;23.90;16.23;;;;;;;6.21;100.00;94508.88;5052615;28;20441;-76
2021/04/18 01:42:38;;;;;;;29.73;18.30;;;;;;;6.17;100.00;94497.03;5052409;28;20522;-76
2021/04/18 01:45:08;;;;;;;23.73;13.70;;;;;;;6.08;100.00;94499.50;5052777;28;20820;-76
2021/04/18 01:47:35;;;;;;;25.60;12.43;;;;;;;5.92;100.00;94491.13;5052848;28;20448;-76
2021/04/18 01:50:01;;;;;;;23.03;16.20;;;;;;;5.89;100.00;94486.94;5052888;28;20499;-76
2021/04/18 01:52:28;;;;;;;21.07;12.10;;;;;;;5.84;100.00;94489.06;5052614;28;20441;-76
2021/04/18 01:54:54;;;;;;;23.60;15.77;;;;;;;5.96;100.00;94492.56;5052568;28;20459;-76
2021/04/18 01:57:21;;;;;;;26.57;18.77;;;;;;;6.17;100.00;94496.19;5051613;28;20496;-76
2021/04/18 01:59:47;;;;;;;29.83;18.70;;;;;;;6.25;100.00;94488.63;5066341;28;20445;-76
2021/04/18 02:02:14;;;;;;;36.33;21.50;;;;;;;6.37;100.00;94487.75;5051821;28;20441;-76
2021/04/18 02:04:41;;;;;;;34.07;21.10;;;;;;;6.42;100.00;94490.00;5051548;28;21054;-76
2021/04/18 02:07:08;;;;;;;35.03;20.30;;;;;;;6.26;100.00;94503.31;5051692;28;20436;-76
2021/04/18 02:09:36;;;;;;;27.90;19.43;;;;;;;6.46;100.00;94507.06;5035156;28;20514;-76
2021/04/18 02:12:05;;;;;;;31.83;20.10;;;;;;;6.43;100.00;94515.13;5055670;28;20445;-76
2021/04/18 02:14:33;;;;;;;29.73;20.37;;;;;;;6.46;100.00;94507.06;5056020;28;20449;-76
2021/04/18 02:17:00;;;;;;;26.37;16.80;;;;;;;6.44;100.00;94504.56;5056217;28;20452;-76
2021/04/18 02:19:27;;;;;;;33.37;19.80;;;;;;;6.45;100.00;94506.22;5055812;28;20444;-76
2021/04/18 02:21:53;;;;;;;34.63;22.13;;;;;;;6.63;100.00;94506.59;5055819;28;20444;-76
2021/04/18 02:24:20;;;;;;;23.50;17.10;;;;;;;6.63;100.00;94500.56;5037062;28;20542;-75
2021/04/18 02:26:46;;;;;;;28.73;19.47;;;;;;;6.72;100.00;94508.53;5055826;28;20459;-76
2021/04/18 02:29:12;;;;;;;36.70;20.50;;;;;;;6.86;100.00;94499.66;5055631;28;20447;-76
2021/04/18 02:31:40;;;;;;;29.57;18.53;;;;;;;6.69;100.00;94497.53;5055994;28;20449;-76
2021/04/18 02:34:06;;;;;;;27.87;17.70;;;;;;;6.74;100.00;94496.22;5055506;28;20445;-76
2021/04/18 02:36:32;;;;;;;45.27;23.00;;;;;;;6.79;100.00;94501.06;5055795;28;20445;-76
2021/04/18 02:38:59;;;;;;;42.40;19.37;;;;;;;6.72;100.00;94487.69;5055505;28;20532;-76
2021/04/18 02:41:25;;;;;;;33.67;21.33;;;;;;;6.79;100.00;94483.66;5055511;28;20445;-76
2021/04/18 02:43:51;;;;;;;32.20;19.50;;;;;;;6.82;100.00;94488.63;5055429;28;20485;-76
2021/04/18 02:46:18;;;;;;;28.20;18.70;;;;;;;6.56;100.00;94481.97;5055276;28;20473;-76
2021/04/18 02:48:45;;;;;;;31.17;19.53;;;;;;;6.78;100.00;94488.97;5055374;28;20515;-76
2021/04/18 02:51:12;;;;;;;32.27;19.27;;;;;;;6.95;100.00;94495.53;5055408;28;20922;-76
2021/04/18 02:53:38;;;;;;;27.10;19.07;;;;;;;7.03;100.00;94496.59;5055217;28;20791;-76
2021/04/18 02:56:05;;;;;;;29.93;18.27;;;;;;;6.81;99.90;94492.19;5055155;28;20453;-76
2021/04/18 02:58:31;;;;;;;33.43;19.83;;;;;;;7.05;100.00;94488.66;5036482;28;20824;-76
2021/04/18 03:00:57;;;;;;;30.57;19.33;;;;;;;7.01;99.05;94492.44;5055351;28;20766;-76
2021/04/18 03:03:24;;;;;;;34.77;22.50;;;;;;;7.07;99.42;94492.78;5055439;28;20488;-76
2021/04/18 03:05:51;;;;;;;29.03;18.13;;;;;;;7.13;99.41;94501.91;5055495;28;20457;-76
2021/04/18 03:08:17;;;;;;;34.43;18.80;;;;;;;7.15;98.95;94502.63;5054961;28;20452;-76
2021/04/18 03:10:43;;;;;;;28.23;19.00;;;;;;;7.14;98.14;94501.78;5055268;28;20757;-76
2021/04/18 03:13:10;;;;;;;42.07;20.20;;;;;;;7.17;98.10;94505.13;5054944;28;20445;-76
2021/04/18 03:15:36;;;;;;;31.00;19.47;;;;;;;7.22;97.82;94508.19;5055187;28;20776;-76
2021/04/18 03:18:03;;;;;;;32.50;21.97;;;;;;;7.28;97.55;94507.75;5054838;28;20515;-76
2021/04/18 03:20:29;;;;;;;36.33;21.20;;;;;;;7.29;97.34;94507.63;5053675;28;20925;-76
2021/04/18 03:22:57;;;;;;;40.40;23.97;;;;;;;7.36;97.64;94500.97;5035831;28;20526;-76
2021/04/18 03:25:23;;;;;;;30.03;19.07;;;;;;;7.38;97.41;94506.88;5054886;28;20453;-76
2021/04/18 03:27:49;;;;;;;37.30;20.27;;;;;;;7.36;96.68;94508.78;5054513;28;20855;-76
2021/04/18 03:30:17;;;;;;;29.27;20.13;;;;;;;7.42;96.59;94517.91;5054762;28;20460;-76
2021/04/18 03:32:43;;;;;;;31.37;20.27;;;;;;;7.47;96.63;94513.97;5036055;28;20498;-76
2021/04/18 03:35:11;;;;;;;31.20;20.00;;;;;;;7.51;96.12;94527.63;5054361;28;20456;-76
2021/04/18 03:37:37;;;;;;;26.60;17.93;;;;;;;7.54;95.78;94537.84;5054704;28;20467;-76
2021/04/18 03:40:06;;;;;;;30.50;19.17;;;;;;;7.54;95.05;94542.25;5054303;28;20564;-76
2021/04/18 03:42:32;;;;;;;27.00;17.53;;;;;;;7.56;94.78;94533.34;5068762;28;20450;-76
2021/04/18 03:44:58;;;;;;;28.60;16.33;;;;;;;7.35;94.90;94530.63;5054395;28;20948;-75
2021/04/18 03:47:25;;;;;;;26.67;17.87;;;;;;;7.39;94.48;94533.81;5054281;28;20441;-75
2021/04/18 03:49:51;;;;;;;25.50;17.03;;;;;;;7.27;94.57;94522.56;5054145;28;20445;-76
2021/04/18 03:52:17;;;;;;;36.83;20.77;;;;;;;7.25;95.22;94532.28;5054289;28;20460;-76
2021/04/18 03:54:44;;;;;;;26.80;18.00;;;;;;;7.07;94.91;94520.66;5054492;28;20835;-76
2021/04/18 03:57:11;;;;;;;25.27;18.23;;;;;;;7.00;95.78;94522.09;5054364;28;20449;-76
2021/04/18 03:59:37;;;;;;;27.50;16.60;;;;;;;6.92;96.19;94527.88;5054099;28;20437;-76
2021/04/18 04:02:05;;;;;;;26.30;17.10;;;;;;;6.73;97.05;94525.84;5053867;28;20453;-76
2021/04/18 04:04:31;;;;;;;33.23;16.03;;;;;;;6.53;98.53;94523.91;5053755;28;20500;-76
2021/04/18 04:06:58;;;;;;;43.20;18.80;;;;;;;6.38;100.00;94517.25;5054245;28;20445;-76
2021/04/18 04:09:24;;;;;;;29.60;19.27;;;;;;;6.62;100.00;94525.81;5054007;28;20454;-76
2021/04/18 04:11:51;;;;;;;35.63;19.50;;;;;;;6.77;100.00;94537.69;5053750;28;20441;-76
2021/04/18 04:14:18;;;;;;;31.70;19.00;;;;;;;6.91;100.00;94541.03;5054226;28;20449;-76
2021/04/18 04:16:44;;;;;;;35.23;20.73;;;;;;;6.91;100.00;94539.25;5053942;28;20445;-76
2021/04/18 04:19:10;;;;;;;34.33;19.20;;;;;;;6.72;99.57;94539.81;5054194;28;20457;-76
2021/04/18 04:21:37;;;;;;;31.27;18.30;;;;;;;6.45;99.35;94547.09;5053839;28;20456;-76
2021/04/18 04:24:04;;;;;;;26.73;17.30;;;;;;;6.69;99.62;94557.47;5053472;28;20493;-76
2021/04/18 04:26:30;;;;;;;35.50;18.00;;;;;;;6.64;100.00;94555.19;5053862;28;20793;-76
2021/04/18 04:28:56;;;;;;;31.50;18.73;;;;;;;6.50;100.00;94551.03;5053141;28;20449;-76
2021/04/18 04:31:23;;;;;;;38.70;20.50;;;;;;;6.40;100.00;94546.63;5053240;28;20444;-76
2021/04/18 04:33:50;;;;;;;35.57;19.13;;;;;;;6.47;100.00;94540.00;5053536;28;20498;-76
2021/04/18 04:36:16;;;;;;;37.17;22.00;;;;;;;6.52;100.00;94543.09;5053859;28;20445;-76
2021/04/18 04:38:42;;;;;;;33.90;19.10;;;;;;;6.70;100.00;94536.50;5034741;28;21217;-76
2021/04/18 04:41:09;;;;;;;29.90;17.70;;;;;;;6.73;100.00;94541.50;5053354;28;20441;-76
2021/04/18 04:43:35;;;;;;;32.93;18.77;;;;;;;6.88;100.00;94549.91;5053312;28;20510;-76
2021/04/18 04:46:01;;;;;;;29.93;18.83;;;;;;;7.00;100.00;94562.03;5067351;28;20473;-76
2021/04/18 04:48:29;;;;;;;27.60;18.03;;;;;;;7.13;100.00;94567.16;5053245;28;20445;-76
2021/04/18 04:50:55;;;;;;;28.03;16.50;;;;;;;7.19;100.00;94564.06;5053317;28;20442;-76
2021/04/18 04:53:21;;;;;;;32.57;18.17;;;;;;;7.12;99.98;94568.91;5053029;28;20445;-76
2021/04/18 04:55:48;;;;;;;27.40;15.33;;;;;;;7.10;99.58;94570.00;5052949;28;20445;-76
2021/04/18 04:58:14;;;;;;;24.97;15.80;;;;;;;7.06;99.35;94568.56;5053119;28;20453;-76
2021/04/18 05:00:41;;;;;;;30.47;16.43;;;;;;;6.89;100.00;94567.22;5052869;28;20448;-76
2021/04/18 05:03:07;;;;;;;23.53;14.63;;;;;;;6.86;100.00;94557.03;5053194;28;20492;-76
2021/04/18 05:05:34;;;;;;;25.80;13.27;;;;;;;6.67;100.00;94561.97;5053400;28;20451;-76
2021/04/18 05:08:01;;;;;;;23.40;14.77;;;;;;;6.51;100.00;94565.72;5053347;28;20449;-76
2021/04/18 05:10:27;;;;;;;20.83;14.53;;;;;;;6.70;100.00;94557.38;5052890;28;20933;-76
2021/04/18 05:12:54;;;;;;;27.13;15.07;;;;;;;6.81;100.00;94566.97;5052939;28;20441;-76
2021/04/18 05:15:22;;;;;;;26.10;14.10;;;;;;;6.80;100.00;94553.09;5052832;28;20449;-76
2021/04/18 05:17:49;;;;;;;15.03;12.40;;;;;;;6.70;100.00;94549.53;5053078;28;20814;-77
2021/04/18 05:20:16;;;;;;;23.90;12.83;;;;;;;6.55;100.00;94545.47;5053069;28;20563;-76
2021/04/18 05:22:43;;;;;;;23.70;12.70;;;;;;;6.62;100.00;94538.84;5052691;28;20445;-76
2021/04/18 05:25:12;;;;;;;17.80;12.20;;;;;;;6.62;100.00;94530.19;5052825;28;20910;-76
2021/04/18 05:27:38;;;;;;;20.57;14.60;;;;;;;6.63;100.00;94535.28;5052623;28;20799;-76
2021/04/18 05:30:07;;;;;;;30.30;16.67;;;;;;;6.65;100.00;94540.38;5052930;28;20944;-76
2021/04/18 05:32:34;;;;;;;25.27;14.47;;;;;;;6.65;100.00;94543.00;5052546;28;20937;-77
2021/04/18 05:35:00;;;;;;;18.83;12.70;;;;;;;6.49;100.00;94527.69;5053134;28;20448;-76
2021/04/18 05:37:26;;;;;;;15.90;13.30;;;;;;;6.42;100.00;94519.50;5053161;28;20464;-76
2021/04/18 05:39:54;;;;;;;20.27;14.00;;;;;;;6.36;100.00;94519.09;5052719;28;20449;-76
2021/04/18 05:42:21;;;;;;;19.07;13.50;;;;;;;6.30;100.00;94507.34;5052665;28;20926;-77
2021/04/18 05:44:47;;;;;;;19.13;12.37;;;;;;;6.36;100.00;94506.94;5055158;28;20497;-77
2021/04/18 05:47:13;;;;;;;27.40;14.27;;;;;;;6.55;100.00;94510.75;5057123;28;20449;-77
2021/04/18 05:49:40;;;;;;;21.77;13.37;;;;;;;6.50;100.00;94511.94;5056395;28;20455;-76
2021/04/18 05:52:06;;;;;;;20.90;13.47;;;;;;;6.73;100.00;94515.41;5056444;28;20803;-76
2021/04/18 05:54:33;;;;;;;19.80;14.73;;;;;;;6.75;100.00;94517.91;5056478;28;20460;-76
2021/04/18 05:57:00;;;;;;;26.73;15.03;;;;;;;6.78;100.00;94518.50;5056381;28;20552;-76
2021/04/18 05:59:26;;;;;;;25.77;17.20;;;;;;;6.95;100.00;94526.81;5021294;28;20484;-77
2021/04/18 06:01:53;;;;;;;24.53;15.77;;;;;;;7.00;100.00;94522.09;5056556;28;20519;-76
2021/04/18 06:04:19;;;;;;;28.87;16.53;;;;;;;6.93;100.00;94523.47;5056309;28;20976;-77
2021/04/18 06:06:45;;;;;;;21.90;15.43;;;;;;;6.74;100.00;94518.84;5056587;28;20459;-77
2021/04/18 06:09:12;;;;;;;19.87;13.83;;;;;;;6.72;100.00;94526.78;5056342;28;20447;-76
2021/04/18 06:11:38;;;;;;;22.40;14.27;;;;;;;6.65;100.00;94528.22;5056283;28;20449;-76
2021/04/18 06:14:05;;;;;;;39.97;16.73;;;;;;;6.79;100.00;94527.97;5056240;28;20484;-77
2021/04/18 06:16:32;;;;;;;25.77;15.90;;;;;;;6.80;100.00;94527.03;5056249;28;20448;-76
2021/04/18 06:18:58;;;;;;;20.80;14.70;;;;;;;6.82;100.00;94525.13;5055940;28;20453;-75
2021/04/18 06:21:24;;;;;;;21.10;13.17;;;;;;;6.79;100.00;94525.38;5056050;28;20468;-76
2021/04/18 06:23:50;;;;;;;22.60;16.00;;;;;;;6.77;100.00;94529.03;5055820;28;20487;-75
2021/04/18 06:26:17;;;;;;;21.30;14.83;;;;;;;6.88;100.00;94525.63;5055857;28;20449;-76
2021/04/18 06:28:43;;;;;;;28.40;16.47;;;;;;;6.84;100.00;94531.06;5056080;28;20441;-76
2021/04/18 06:31:10;;;;;;;21.27;14.23;;;;;;;6.90;100.00;94528.94;5037019;28;20456;-76
2021/04/18 06:33:37;;;;;;;21.33;14.07;;;;;;;7.01;100.00;94531.56;5055984;28;20506;-75
2021/04/18 06:36:04;;;;;;;21.87;13.10;;;;;;;6.94;100.00;94532.97;5055877;28;20835;-76
2021/04/18 06:38:30;;;;;;;19.50;11.87;;;;;;;6.80;100.00;94540.06;5036537;28;20449;-75
2021/04/18 06:40:57;;;;;;;19.90;12.53;;;;;;;6.82;100.00;94546.00;5056016;28;20495;-76
2021/04/18 06:43:24;;;;;;;23.10;11.57;;;;;;;6.76;100.00;94535.22;5055746;28;20797;-75
2021/04/18 06:45:51;;;;;;;21.23;11.83;;;;;;;6.73;100.00;94546.69;5055415;28;20949;-75
2021/04/18 06:48:19;;;;;;;23.23;13.37;;;;;;;6.84;100.00;94549.31;5055557;28;20441;-76
2021/04/18 06:50:47;;;;;;;20.40;12.37;;;;;;;6.77;100.00;94548.13;5055240;28;20445;-76
2021/04/18 06:53:13;;;;;;;18.00;11.80;;;;;;;6.64;100.00;94554.38;5055487;28;20441;-75
2021/04/18 06:55:40;;;;;;;19.63;11.77;;;;;;;6.54;100.00;94554.22;5054362;28;20460;-75
2021/04/18 06:58:06;;;;;;;24.63;15.47;;;;;;;6.59;100.00;94554.72;5036717;28;20475;-75
2021/04/18 07:00:33;;;;;;;30.20;17.80;;;;;;;6.57;100.00;94554.00;5055490;28;20446;-75
2021/04/18 07:03:10;;;;;;;25.40;14.67;;;;;;;6.70;100.00;94554.75;5055433;28;20440;-76
2021/04/18 07:05:43;;;;;;;30.10;18.53;;;;;;;6.82;100.00;94556.44;5055488;28;20453;-75
2021/04/18 07:08:25;;;;;;;30.20;18.10;;;;;;;6.89;100.00;94561.19;5036274;28;20429;-75
2021/04/18 07:10:52;;;;;;;29.30;16.27;;;;;;;6.94;100.00;94559.03;5055164;28;20506;-75
2021/04/18 07:13:21;;;;;;;23.73;15.50;;;;;;;6.99;100.00;94567.38;5055258;28;20452;-75
2021/04/18 07:15:48;;;;;;;35.63;19.03;;;;;;;7.04;100.00;94554.81;5054853;28;20507;-76
2021/04/18 07:18:39;;;;;;;28.20;16.33;;;;;;;7.18;100.00;94557.19;5055200;28;20524;-75
2021/04/18 07:21:07;;;;;;;25.07;17.93;;;;;;;7.08;100.00;94553.63;5054650;28;20445;-76
2021/04/18 07:23:34;;;;;;;30.07;19.40;;;;;;;7.06;100.00;94550.31;5054940;28;20485;-75
2021/04/18 07:26:17;;;;;;;31.27;18.73;;;;;;;7.09;100.00;94558.72;5054975;28;20566;-75
2021/04/18 07:28:43;;;;;;;29.50;14.40;;;;;;;6.94;100.00;94564.25;5054859;28;20937;-76
2021/04/18 07:31:10;;;;;;;30.37;17.37;;;;;;;7.01;100.00;94552.44;5069597;28;20457;-78
2021/04/18 07:36:29;;;;;;;18.10;12.70;;;;;;;7.23;100.00;94565.50;5152292;27;20502;-76
2021/04/18 07:38:56;;;;;;;41.43;19.80;;;;;;;7.36;100.00;94560.16;5132746;27;20489;-75
2021/04/18 07:41:24;;;;;;;26.60;17.60;;;;;;;7.21;100.00;94567.38;5152308;27;20444;-76
2021/04/18 07:43:51;;;;;;;39.43;20.90;;;;;;;7.10;99.92;94564.78;5152026;27;20441;-76
2021/04/18 07:46:19;;;;;;;37.33;22.07;;;;;;;7.34;100.00;94573.34;5151781;27;20445;-76
2021/04/18 07:48:46;;;;;;;35.93;21.23;;;;;;;7.33;100.00;94565.63;5151820;27;20441;-76
2021/04/18 07:51:12;;;;;;;44.07;24.63;;;;;;;7.64;100.00;94579.72;5151745;27;20433;-76
2021/04/18 07:53:41;;;;;;;35.60;20.27;;;;;;;7.83;100.00;94574.72;5152039;27;20441;-76
2021/04/18 07:56:09;;;;;;;35.83;21.27;;;;;;;7.84;98.92;94581.63;5151398;27;20976;-76
2021/04/18 07:58:38;;;;;;;32.80;20.87;;;;;;;7.74;98.21;94578.88;5151748;27;20428;-76
2021/04/18 08:01:04;;;;;;;35.10;20.63;;;;;;;7.97;97.18;94584.91;5151624;27;20482;-76
2021/04/18 08:03:31;;;;;;;42.90;22.30;;;;;;;8.16;97.20;94575.59;5151649;27;20440;-76
2021/04/18 08:05:58;;;;;;;41.50;22.67;;;;;;;8.36;97.19;94577.44;5151685;27;20432;-76
2021/04/18 08:08:25;;;;;;;39.03;21.63;;;;;;;8.54;97.34;94575.13;5151929;27;20438;-76
2021/04/18 08:10:53;;;;;;;36.63;21.30;;;;;;;8.67;96.36;94581.88;5151356;27;21013;-77
2021/04/18 08:13:21;;;;;;;39.90;19.70;;;;;;;8.79;95.06;94573.94;5151093;27;20945;-76
2021/04/18 08:16:04;;;;;;;39.23;19.80;;;;;;;8.89;94.58;94578.28;5132124;27;21636;-77
2021/04/18 08:18:32;;;;;;;38.43;20.13;;;;;;;9.00;93.17;94572.16;5151753;27;20442;-76
2021/04/18 08:21:00;;;;;;;35.80;19.13;;;;;;;9.13;92.78;94579.81;5151066;27;20490;-77
2021/04/18 08:23:37;;;;;;;35.60;21.00;;;;;;;9.21;91.43;94580.81;5151587;27;20786;-77
2021/04/18 08:26:15;;;;;;;36.57;22.07;;;;;;;9.27;92.51;94587.34;5151533;27;20487;-76
2021/04/18 08:29:09;;;;;;;41.40;22.50;;;;;;;9.38;91.78;94582.00;5151198;27;20482;-76
2021/04/18 08:32:00;;;;;;;32.23;20.67;;;;;;;9.43;91.51;94585.06;5150892;27;20451;-76
2021/04/18 08:34:29;;;;;;;37.47;21.00;;;;;;;9.49;90.51;94586.34;5150702;27;20501;-77
2021/04/18 08:36:57;;;;;;;40.33;21.80;;;;;;;9.55;90.06;94584.03;5150824;27;20458;-76
2021/04/18 08:39:29;;;;;;;37.00;23.07;;;;;;;9.57;90.16;94578.66;5150921;27;20490;-76
2021/04/18 08:41:58;;;;;;;42.60;21.40;;;;;;;9.64;90.56;94582.41;5150917;27;20435;-76
2021/04/18 08:44:30;;;;;;;41.87;24.07;;;;;;;9.71;89.98;94585.31;5150793;27;20447;-76
2021/04/18 08:46:58;;;;;;;39.40;22.47;;;;;;;9.78;89.00;94591.69;5142339;27;20454;-76
2021/04/18 08:49:30;;;;;;;42.90;23.10;;;;;;;9.83;88.79;94592.13;5136873;27;20439;-76
2021/04/18 08:51:58;;;;;;;41.83;20.60;;;;;;;9.52;88.01;94591.31;5136673;27;20469;-77
2021/04/18 08:54:30;;;;;;;34.40;20.53;;;;;;;9.52;87.19;94596.53;5136696;27;20962;-77
2021/04/18 08:57:00;;;;;;;39.17;23.07;;;;;;;9.56;88.38;94592.72;5136624;27;20451;-77
2021/04/18 08:59:27;;;;;;;42.23;24.37;;;;;;;9.55;88.16;94594.53;5136669;27;20431;-77
2021/04/18 09:01:59;;;;;;;35.83;22.20;;;;;;;9.61;88.36;94598.41;5136028;27;20439;-76
2021/04/18 09:04:26;;;;;;;30.33;18.30;;;;;;;9.63;88.15;94604.34;5135689;27;20448;-76
2021/04/18 09:06:52;;;;;;;32.07;18.60;;;;;;;9.49;87.51;94594.19;5135625;27;20446;-76
2021/04/18 09:09:19;;;;;;;35.73;20.87;;;;;;;9.39;89.30;94596.78;5135511;27;20445;-75
2021/04/18 09:11:47;;;;;;;27.60;16.83;;;;;;;9.32;89.15;94614.78;5135853;27;20431;-77
2021/04/18 09:14:24;;;;;;;28.47;17.90;;;;;;;9.16;89.36;94601.31;5136399;27;20534;-76
2021/04/18 09:16:51;;;;;;;22.60;15.47;;;;;;;9.12;89.02;94596.47;5136125;27;20434;-77
2021/04/18 09:19:28;;;;;;;28.87;16.70;;;;;;;9.15;88.98;94598.84;5136166;27;20502;-76
2021/04/18 09:22:04;;;;;;;26.17;16.27;;;;;;;9.19;88.50;94597.59;5136479;27;20449;-76
2021/04/18 09:24:30;;;;;;;29.70;18.20;;;;;;;9.21;89.97;94595.69;5136421;27;20446;-77
2021/04/18 09:26:59;;;;;;;31.43;20.37;;;;;;;9.29;90.01;94604.59;5136367;27;20774;-76
2021/04/18 09:29:28;;;;;;;38.50;22.93;;;;;;;9.35;89.07;94603.22;5118848;27;20430;-77
2021/04/18 09:32:00;;;;;;;36.43;22.60;;;;;;;9.39;90.11;94598.56;5136230;27;20458;-77
2021/04/18 09:34:27;;;;;;;40.80;23.10;;;;;;;9.43;89.89;94590.31;5135778;27;20471;-77
2021/04/18 09:36:56;;;;;;;43.13;25.63;;;;;;;9.52;89.53;94589.50;5136435;27;20447;-77
2021/04/18 09:39:27;;;;;;;46.43;24.10;;;;;;;9.61;89.23;94593.16;5136518;27;20500;-76
2021/04/18 09:41:54;;;;;;;44.63;22.70;;;;;;;9.70;88.68;94600.22;5135504;27;20564;-77
2021/04/18 09:44:29;;;;;;;39.17;24.00;;;;;;;9.76;89.17;94604.91;5135176;27;20947;-77
2021/04/18 09:46:58;;;;;;;34.10;20.70;;;;;;;9.79;88.65;94601.22;5134827;27;20809;-77
2021/04/18 09:49:26;;;;;;;47.03;24.60;;;;;;;9.82;88.45;94599.16;5098678;27;20489;-77
2021/04/18 09:51:58;;;;;;;36.83;22.47;;;;;;;9.82;87.45;94606.19;5134877;27;20497;-78
2021/04/18 09:54:30;;;;;;;39.70;24.00;;;;;;;9.85;87.96;94600.69;5134568;27;20451;-77
2021/04/18 09:57:24;;;;;;;45.63;24.77;;;;;;;9.93;88.35;94593.81;5134893;27;20448;-77
2021/04/18 10:00:09;;;;;;;37.27;22.40;;;;;;;10.06;87.66;94598.81;5134311;27;20455;-77
2021/04/18 10:02:37;;;;;;;50.20;28.33;;;;;;;10.21;87.10;94597.50;5098435;27;20495;-77
2021/04/18 10:05:14;;;;;;;44.50;25.77;;;;;;;10.42;87.32;94593.97;5134507;27;20500;-77
2021/04/18 10:07:41;;;;;;;36.90;22.27;;;;;;;10.51;86.45;94599.22;5134623;27;20459;-77
2021/04/18 10:10:09;;;;;;;33.00;20.80;;;;;;;10.53;85.60;94591.19;5134460;27;20463;-77
2021/04/18 10:12:47;;;;;;;35.50;20.80;;;;;;;10.51;85.47;94604.47;5134380;27;20444;-77
2021/04/18 10:15:14;;;;;;;32.40;19.50;;;;;;;10.58;84.88;94601.28;5134365;27;20485;-77
2021/04/18 10:17:41;;;;;;;33.30;20.10;;;;;;;10.66;84.93;94604.88;5134241;27;20936;-77
2021/04/18 10:20:09;;;;;;;38.77;20.70;;;;;;;10.74;84.61;94604.19;5134171;27;20830;-77
2021/04/18 10:22:35;;;;;;;29.30;20.73;;;;;;;10.82;85.05;94596.47;5134267;27;20995;-77
2021/04/18 10:25:07;;;;;;;29.37;18.97;;;;;;;10.86;83.05;94597.84;5134214;27;20457;-76
2021/04/18 10:27:34;;;;;;;33.87;19.97;;;;;;;10.80;83.89;94590.53;5134417;27;20445;-77
2021/04/18 10:30:04;;;;;;;36.27;21.43;;;;;;;10.80;85.55;94583.47;5133982;27;20979;-77
2021/04/18 10:32:31;;;;;;;31.43;20.00;;;;;;;10.77;83.19;94596.06;5133864;27;20445;-78
2021/04/18 10:34:58;;;;;;;27.77;16.67;;;;;;;10.80;82.79;94590.53;5133911;27;20492;-77
2021/04/18 10:37:24;;;;;;;28.97;17.80;;;;;;;10.87;85.34;94594.25;5134029;27;21153;-77
2021/04/18 10:39:51;;;;;;;28.53;17.60;;;;;;;10.99;84.00;94593.16;5133853;27;20935;-77
2021/04/18 10:42:17;;;;;;;33.97;21.53;;;;;;;11.02;83.56;94603.38;5133754;27;20438;-77
2021/04/18 10:44:44;;;;;;;29.40;17.53;;;;;;;10.96;82.53;94609.16;5134610;27;20814;-77
2021/04/18 10:47:15;;;;;;;26.93;17.60;;;;;;;11.01;83.69;94606.97;5134832;27;20444;-77
2021/04/18 10:49:42;;;;;;;38.00;21.90;;;;;;;11.05;86.65;94603.06;5134178;27;20490;-77
2021/04/18 10:52:09;;;;;;;42.73;25.03;;;;;;;11.03;85.76;94606.81;5134405;27;20457;-76
2021/04/18 10:54:35;;;;;;;43.60;25.50;;;;;;;11.04;86.55;94606.69;5098173;27;20448;-77
2021/04/18 10:57:02;;;;;;;43.33;23.50;;;;;;;11.05;86.90;94613.59;5064504;27;20462;-76
2021/04/18 10:59:28;;;;;;;49.60;23.60;;;;;;;11.03;86.32;94605.00;5134627;27;20449;-77
2021/04/18 11:01:54;;;;;;;35.33;21.57;;;;;;;11.01;85.22;94606.97;5134313;27;20442;-77
2021/04/18 11:04:21;;;;;;;35.87;21.80;;;;;;;11.01;86.00;94616.63;5134352;27;20671;-77
2021/04/18 11:06:47;;;;;;;38.03;22.13;;;;;;;10.95;85.22;94614.53;5134174;27;20464;-77
2021/04/18 11:09:15;;;;;;;45.83;24.20;;;;;;;10.90;87.05;94620.22;5133757;27;20472;-76
2021/04/18 11:11:41;;;;;;;43.17;20.97;;;;;;;10.92;86.63;94610.41;5134262;27;20773;-77
2021/04/18 11:14:07;;;;;;;47.83;21.50;;;;;;;11.01;86.24;94617.47;5134037;27;20441;-76
2021/04/18 11:16:34;;;;;;;39.60;20.93;;;;;;;10.99;86.85;94614.16;5134198;27;20477;-76
2021/04/18 11:19:00;;;;;;;37.07;21.57;;;;;;;11.01;86.26;94614.00;5134535;27;20464;-76
2021/04/18 11:21:27;;;;;;;33.17;22.60;;;;;;;11.05;86.89;94610.13;5133853;27;20448;-77
2021/04/18 11:23:55;;;;;;;33.13;20.03;;;;;;;11.08;85.12;94615.09;5134169;27;20438;-77
2021/04/18 11:26:22;;;;;;;31.40;19.83;;;;;;;11.07;84.80;94614.28;5134183;27;20818;-77